Forest Hill, West Virginia
Current Conditions -  °F | °C
As of 6:51 AM on Friday 21 Nov 2014 (Local Time) from KBKW Reporting Station
Few Clouds Few Clouds  
Wind Chill: 11°   Ceiling: Unl
Heat Index: 19°   Visibility: 10mi
Dew Point: 11°   Wind: 6mph
Humidity: 71%   Direction: 280°W
Pressure: 30.3"   Gusts: NA
Location:  37.56°N, 80.81°W
Report Text: KBKW 211151Z AUTO 28005KT 10SM FEW026 M07/M12 A3030 RMK AO2 SLP298 T10721117 11044 21072 53023
Loading
Personal Weather Stations






























Interactive Weather Map New forecast layout! Learn more

10-Day Weather Forecast

Advertisements
Track Severe Weather on mobile